Time;durP1;ratioP1;P1;durP2;ratioP2;P2;SDS_P1;SDS_P2;PMS_P1;PMS_P2;Temp;Humidity;BMP_temperature;BMP_pressure;BME280_temperature;BME280_humidity;BME280_pressure;Samples;Min_cycle;Max_cycle;Signal;HPM_P1;HPM_P2
2022/02/14 00:00:10;;;;;;;6.68;2.75;;;;;;;10.11;50.22;99071.59;5112537;28;20051;-60
2022/02/14 00:02:37;;;;;;;4.10;2.72;;;;;;;9.99;50.58;99070.75;5111874;28;20059;-59
2022/02/14 00:05:05;;;;;;;5.57;3.00;;;;;;;9.96;50.72;99048.03;5111782;28;20179;-60
2022/02/14 00:07:33;;;;;;;6.00;2.97;;;;;;;10.02;50.28;99082.00;5111971;28;20055;-60
2022/02/14 00:10:00;;;;;;;6.35;2.90;;;;;;;10.04;50.27;99068.56;5111985;28;20523;-60
2022/02/14 00:12:28;;;;;;;4.53;2.50;;;;;;;9.94;51.08;99055.09;5111664;28;20055;-59
2022/02/14 00:14:55;;;;;;;6.55;2.70;;;;;;;10.05;50.64;99067.41;5121271;28;20051;-59
2022/02/14 00:17:25;;;;;;;6.47;3.15;;;;;;;10.04;50.62;99045.50;5128844;27;20043;-58
2022/02/14 00:19:55;;;;;;;4.88;2.92;;;;;;;10.03;50.86;99027.19;5112372;28;20054;-60
2022/02/14 00:22:23;;;;;;;4.97;2.83;;;;;;;10.14;50.75;99047.81;5111760;28;20048;-58
2022/02/14 00:24:51;;;;;;;6.18;2.92;;;;;;;10.11;50.79;99042.97;5111691;28;20055;-59
2022/02/14 00:27:19;;;;;;;4.03;2.90;;;;;;;10.07;50.70;99058.72;5111983;28;20480;-60
2022/02/14 00:29:48;;;;;;;5.20;2.53;;;;;;;10.08;51.01;99007.47;5113291;28;20050;-60
2022/02/14 00:32:15;;;;;;;5.85;2.67;;;;;;;10.10;51.40;99053.28;5112173;28;20055;-60
2022/02/14 00:34:44;;;;;;;5.95;2.95;;;;;;;10.12;50.96;99014.78;5111905;28;20051;-60
2022/02/14 00:37:12;;;;;;;4.70;2.53;;;;;;;10.19;50.97;99021.75;5111519;28;20048;-60
2022/02/14 00:39:40;;;;;;;5.90;2.65;;;;;;;10.11;51.13;99026.25;5111532;28;20052;-60
2022/02/14 00:42:07;;;;;;;4.07;2.30;;;;;;;10.06;51.27;99032.88;5111600;28;20051;-59
2022/02/14 00:44:35;;;;;;;5.38;2.85;;;;;;;10.05;51.07;99008.97;5117419;28;20054;-60
2022/02/14 00:47:02;;;;;;;5.07;2.50;;;;;;;10.03;51.34;99011.28;5127110;27;20172;-60
2022/02/14 00:49:32;;;;;;;3.50;2.30;;;;;;;10.21;51.12;99031.38;5111589;28;20044;-60
2022/02/14 00:52:00;;;;;;;5.45;2.45;;;;;;;10.20;50.96;99031.72;5111904;28;20056;-60
2022/02/14 00:54:28;;;;;;;7.82;2.90;;;;;;;10.14;50.95;99018.03;5115088;28;20047;-60
2022/02/14 00:56:55;;;;;;;5.63;2.85;;;;;;;10.02;51.28;99000.53;5126366;27;20051;-59
2022/02/14 00:59:22;;;;;;;4.50;2.83;;;;;;;9.95;51.51;99024.19;5135896;27;20047;-60
2022/02/14 01:01:50;;;;;;;5.95;2.55;;;;;;;10.05;51.26;99022.09;5127002;27;20055;-60
2022/02/14 01:04:17;;;;;;;6.63;2.63;;;;;;;10.04;51.20;99007.38;5115360;28;20495;-60
2022/02/14 01:06:45;;;;;;;4.38;2.65;;;;;;;9.95;51.55;98984.41;5115318;27;20062;-60
2022/02/14 01:09:13;;;;;;;5.53;3.00;;;;;;;9.94;51.86;98982.78;5114792;28;20039;-60
2022/02/14 01:11:41;;;;;;;5.30;2.60;;;;;;;10.03;51.48;98986.25;5115558;27;20055;-60
2022/02/14 01:14:09;;;;;;;6.60;2.83;;;;;;;9.94;51.68;98977.22;5115211;28;20054;-60
2022/02/14 01:16:36;;;;;;;5.82;2.65;;;;;;;9.87;52.18;98971.41;5115122;28;20115;-60
2022/02/14 01:19:03;;;;;;;6.57;2.75;;;;;;;9.95;52.04;98970.50;5115270;28;20054;-60
2022/02/14 01:21:30;;;;;;;7.28;2.72;;;;;;;9.93;52.09;98961.69;5114631;28;20063;-60
2022/02/14 01:23:58;;;;;;;5.25;2.85;;;;;;;9.88;51.98;98962.72;5114825;28;20082;-60
2022/02/14 01:26:27;;;;;;;6.53;2.42;;;;;;;9.94;52.20;98971.66;5115364;27;20063;-60
2022/02/14 01:28:54;;;;;;;8.43;2.70;;;;;;;9.90;51.92;98970.72;5115021;28;20051;-60
2022/02/14 01:31:21;;;;;;;5.10;2.45;;;;;;;9.92;52.42;98962.84;5114733;28;20491;-60
2022/02/14 01:33:49;;;;;;;6.63;2.50;;;;;;;9.92;52.38;98958.09;5113934;28;20047;-59
2022/02/14 01:36:16;;;;;;;4.75;2.67;;;;;;;9.95;52.00;98945.47;5115078;28;20051;-60
2022/02/14 01:38:43;;;;;;;5.40;2.65;;;;;;;9.88;52.06;98948.81;5114384;28;20066;-59
2022/02/14 01:41:11;;;;;;;4.45;2.55;;;;;;;9.80;52.67;98944.19;5114746;27;20059;-60
2022/02/14 01:43:41;;;;;;;6.60;3.35;;;;;;;9.64;52.91;98957.97;5114211;28;20051;-59
2022/02/14 01:46:09;;;;;;;8.20;3.10;;;;;;;9.74;52.70;98949.19;5114467;28;20051;-58
2022/02/14 01:48:36;;;;;;;6.93;3.20;;;;;;;9.88;52.39;98948.03;5114294;28;20353;-60
2022/02/14 01:51:03;;;;;;;8.52;3.00;;;;;;;9.80;52.73;98940.59;5114154;28;20423;-60
2022/02/14 01:53:31;;;;;;;4.07;2.72;;;;;;;9.84;52.67;98919.28;5114045;28;20051;-60
2022/02/14 01:55:58;;;;;;;7.40;3.13;;;;;;;9.72;52.90;98914.50;5114686;27;20082;-60
2022/02/14 01:58:26;;;;;;;8.88;3.28;;;;;;;9.88;52.40;98943.25;5113891;28;20164;-60
2022/02/14 02:00:55;;;;;;;7.22;2.80;;;;;;;9.92;52.52;98910.00;5114186;28;20380;-60
2022/02/14 02:03:24;;;;;;;8.55;2.63;;;;;;;9.93;52.41;98898.53;5113984;28;20051;-60
2022/02/14 02:05:52;;;;;;;5.50;2.65;;;;;;;9.97;52.27;98881.94;5114257;28;20074;-60
2022/02/14 02:08:20;;;;;;;6.32;2.67;;;;;;;9.87;52.63;98897.16;5114039;28;20047;-60
2022/02/14 02:10:48;;;;;;;7.07;2.38;;;;;;;9.90;52.42;98882.53;5125589;27;20055;-60
2022/02/14 02:13:16;;;;;;;6.75;2.90;;;;;;;9.92;52.58;98866.31;5122216;27;20488;-60
2022/02/14 02:15:44;;;;;;;9.10;3.88;;;;;;;9.96;52.31;98853.34;5113865;28;20059;-59
2022/02/14 02:18:12;;;;;;;7.25;3.00;;;;;;;9.85;52.49;98849.41;5114244;28;20051;-60
2022/02/14 02:20:40;;;;;;;5.63;2.70;;;;;;;9.83;52.80;98862.06;5113362;28;20048;-60
2022/02/14 02:23:07;;;;;;;5.50;2.60;;;;;;;9.88;52.71;98851.47;5114056;28;20389;-60
2022/02/14 02:25:36;;;;;;;5.32;2.75;;;;;;;9.86;53.00;98844.66;5114447;27;20051;-60
2022/02/14 02:28:04;;;;;;;4.87;2.50;;;;;;;9.85;53.13;98834.69;5113744;27;20056;-60
2022/02/14 02:30:33;;;;;;;6.10;2.70;;;;;;;9.66;53.35;98836.13;5113382;28;20062;-60
2022/02/14 02:33:00;;;;;;;8.38;3.05;;;;;;;9.79;53.10;98825.78;5113568;28;20058;-60
2022/02/14 02:35:28;;;;;;;4.43;2.70;;;;;;;9.71;53.48;98830.31;5113983;27;20047;-60
2022/02/14 02:37:55;;;;;;;6.00;3.30;;;;;;;9.98;52.86;98811.25;5113556;27;20052;-60
2022/02/14 02:40:23;;;;;;;5.97;2.90;;;;;;;9.96;52.88;98808.03;5130508;27;20399;-58
2022/02/14 02:42:52;;;;;;;5.90;2.72;;;;;;;9.82;53.14;98824.28;5133903;27;20407;-59
2022/02/14 02:45:19;;;;;;;6.57;2.85;;;;;;;9.90;52.86;98801.09;5114121;27;20051;-60
2022/02/14 02:47:46;;;;;;;6.80;3.13;;;;;;;9.80;52.99;98799.59;5113026;28;20054;-60
2022/02/14 02:50:14;;;;;;;3.97;2.38;;;;;;;9.81;53.26;98805.97;5115337;27;20476;-60
2022/02/14 02:52:41;;;;;;;6.18;2.42;;;;;;;9.85;53.34;98804.09;5112923;28;20047;-60
2022/02/14 02:55:09;;;;;;;5.53;2.90;;;;;;;9.77;53.24;98783.63;5113752;28;20047;-60
2022/02/14 02:57:36;;;;;;;5.45;2.65;;;;;;;9.78;52.90;98817.78;5112893;28;20063;-60
2022/02/14 03:00:07;;;;;;;7.50;3.13;;;;;;;9.80;52.76;98799.59;5113078;28;20468;-59
2022/02/14 03:02:34;;;;;;;7.90;2.42;;;;;;;9.79;53.11;98799.97;5100116;28;20054;-60
2022/02/14 03:05:01;;;;;;;5.82;2.40;;;;;;;9.80;53.13;98790.44;5120413;27;20058;-59
2022/02/14 03:07:28;;;;;;;6.88;2.60;;;;;;;9.75;53.10;98797.88;5130143;27;20051;-59
2022/02/14 03:09:56;;;;;;;5.63;2.30;;;;;;;9.73;53.16;98777.94;5112646;28;20051;-60
2022/02/14 03:12:24;;;;;;;5.13;2.30;;;;;;;9.64;53.48;98763.38;5112566;28;20055;-60
2022/02/14 03:14:51;;;;;;;6.00;2.50;;;;;;;9.68;53.41;98778.19;5110980;27;20396;-60
2022/02/14 03:17:23;;;;;;;4.15;2.15;;;;;;;9.74;53.36;98773.19;5112849;28;20047;-60
2022/02/14 03:19:51;;;;;;;6.18;2.72;;;;;;;9.78;53.19;98757.41;5112825;27;20062;-60
2022/02/14 03:22:18;;;;;;;5.53;2.40;;;;;;;9.51;53.76;98759.81;5112730;28;20060;-60
2022/02/14 03:24:45;;;;;;;4.72;2.30;;;;;;;9.75;53.14;98758.94;5112558;28;20403;-60
2022/02/14 03:27:13;;;;;;;3.58;2.17;;;;;;;9.79;53.52;98739.59;5112892;28;20051;-59
2022/02/14 03:29:40;;;;;;;6.63;2.40;;;;;;;9.68;53.41;98730.94;5111994;28;20412;-60
2022/02/14 03:32:08;;;;;;;4.97;2.20;;;;;;;9.66;53.43;98747.16;5112559;28;20055;-60
2022/02/14 03:34:37;;;;;;;5.75;2.85;;;;;;;9.67;53.61;98747.97;5120344;27;20058;-59
2022/02/14 03:37:04;;;;;;;4.63;2.70;;;;;;;9.77;53.13;98749.44;5115136;27;20521;-59
2022/02/14 03:39:32;;;;;;;4.75;2.45;;;;;;;9.60;53.41;98731.06;5112381;28;20044;-60
2022/02/14 03:42:00;;;;;;;5.82;2.20;;;;;;;9.74;53.47;98729.53;5111965;28;20495;-60
2022/02/14 03:44:27;;;;;;;4.95;2.53;;;;;;;9.62;53.43;98774.03;5112510;28;20126;-60
2022/02/14 03:46:54;;;;;;;7.05;2.83;;;;;;;9.73;53.45;98708.44;5111965;28;20059;-60
2022/02/14 03:49:24;;;;;;;6.53;2.42;;;;;;;9.67;53.23;98693.16;5112571;27;20052;-59
2022/02/14 03:51:53;;;;;;;3.92;2.00;;;;;;;9.66;53.40;98699.91;5112229;28;20527;-59
2022/02/14 03:54:20;;;;;;;4.50;2.20;;;;;;;9.66;53.49;98710.19;5112809;28;20070;-59
2022/02/14 03:56:58;;;;;;;5.20;2.63;;;;;;;9.69;53.49;98721.41;5111615;28;20078;-59
2022/02/14 03:59:25;;;;;;;5.50;2.30;;;;;;;9.64;53.76;98693.88;5112325;28;20051;-59
2022/02/14 04:01:55;;;;;;;6.22;2.45;;;;;;;9.64;53.54;98702.22;5112348;28;20048;-59
2022/02/14 04:04:25;;;;;;;5.60;2.40;;;;;;;9.55;53.84;98709.88;5112877;27;20059;-60
2022/02/14 04:06:54;;;;;;;7.47;2.70;;;;;;;9.59;53.76;98719.13;5112381;28;20047;-59
2022/02/14 04:09:21;;;;;;;5.30;2.60;;;;;;;9.58;53.66;98725.06;5112131;28;20483;-59
2022/02/14 04:11:49;;;;;;;4.82;2.28;;;;;;;9.65;53.84;98719.69;5111520;28;20075;-59
2022/02/14 04:14:16;;;;;;;5.30;2.55;;;;;;;9.58;54.49;98692.50;5112374;28;20387;-59
2022/02/14 04:16:49;;;;;;;4.22;2.10;;;;;;;9.65;53.98;98689.13;5111915;28;20043;-59
2022/02/14 04:19:16;;;;;;;8.65;2.55;;;;;;;9.54;54.07;98664.59;5111728;28;20051;-59
2022/02/14 04:21:44;;;;;;;4.30;2.10;;;;;;;9.41;54.66;98690.81;5111422;28;20070;-59
2022/02/14 04:24:13;;;;;;;4.72;2.10;;;;;;;9.67;54.04;98692.34;5112720;28;20059;-59
2022/02/14 04:26:40;;;;;;;4.43;2.42;;;;;;;9.71;53.64;98716.31;5113604;28;20054;-59
2022/02/14 04:29:11;;;;;;;5.40;2.08;;;;;;;9.68;53.84;98705.91;5116334;28;20052;-59
2022/02/14 04:31:39;;;;;;;4.28;2.10;;;;;;;9.67;53.87;98743.19;5115814;27;20058;-59
2022/02/14 04:34:06;;;;;;;7.30;2.20;;;;;;;9.71;53.91;98735.78;5116234;28;20052;-58
2022/02/14 04:36:33;;;;;;;5.50;2.15;;;;;;;9.75;54.01;98755.34;5115917;28;20062;-59
2022/02/14 04:39:00;;;;;;;3.92;2.00;;;;;;;9.76;53.88;98745.84;5122946;27;20375;-59
2022/02/14 04:41:32;;;;;;;3.75;2.08;;;;;;;9.77;53.87;98744.69;5130406;27;20055;-59
2022/02/14 04:43:59;;;;;;;4.60;2.30;;;;;;;9.82;54.00;98732.50;5115702;28;20461;-59
2022/02/14 04:46:26;;;;;;;7.25;2.72;;;;;;;9.67;54.42;98743.19;5115973;28;20068;-60
2022/02/14 04:48:54;;;;;;;2.97;2.10;;;;;;;9.78;54.09;98728.81;5115436;28;20467;-59
2022/02/14 04:51:21;;;;;;;5.53;2.30;;;;;;;9.75;54.08;98731.13;5115540;28;20055;-59
2022/02/14 04:53:49;;;;;;;7.78;2.33;;;;;;;9.77;54.04;98760.56;5115338;28;20059;-59
2022/02/14 04:56:16;;;;;;;3.67;2.13;;;;;;;9.79;54.07;98736.00;5115405;28;20052;-59
2022/02/14 04:58:45;;;;;;;5.22;2.22;;;;;;;9.69;54.30;98743.66;5115240;28;20052;-60
2022/02/14 05:01:13;;;;;;;4.50;1.95;;;;;;;9.76;54.04;98729.16;5114376;28;20070;-59
2022/02/14 05:03:45;;;;;;;6.63;2.17;;;;;;;9.75;54.23;98735.88;5115014;28;20050;-60
2022/02/14 05:06:12;;;;;;;3.72;1.85;;;;;;;9.73;54.50;98735.44;5115636;28;20055;-59
2022/02/14 05:08:40;;;;;;;7.63;2.45;;;;;;;9.75;54.49;98753.38;5115370;27;20047;-59
2022/02/14 05:11:08;;;;;;;5.43;2.30;;;;;;;9.73;54.53;98738.22;5114140;28;20062;-60
2022/02/14 05:13:39;;;;;;;4.28;1.83;;;;;;;9.74;54.50;98739.81;5115188;28;20044;-59
2022/02/14 05:16:08;;;;;;;4.78;2.10;;;;;;;9.61;54.72;98741.81;5114859;28;20439;-59
2022/02/14 05:18:36;;;;;;;4.95;2.15;;;;;;;9.53;54.99;98724.13;5115061;28;20063;-59
2022/02/14 05:21:03;;;;;;;4.38;1.95;;;;;;;9.48;55.19;98748.56;5115487;28;20044;-59
2022/02/14 05:23:31;;;;;;;4.43;2.38;;;;;;;9.60;54.91;98753.31;5114933;27;20059;-59
2022/02/14 05:25:58;;;;;;;3.42;1.92;;;;;;;9.65;54.87;98744.72;5115451;28;20054;-59
2022/02/14 05:28:25;;;;;;;3.55;2.15;;;;;;;9.69;54.57;98738.09;5114423;27;20054;-59
2022/02/14 05:30:53;;;;;;;5.60;2.08;;;;;;;9.66;54.83;98726.84;5113381;27;20344;-60
2022/02/14 05:33:22;;;;;;;4.05;2.40;;;;;;;9.70;55.02;98727.78;5116653;27;20051;-59
2022/02/14 05:35:49;;;;;;;3.93;2.23;;;;;;;9.66;55.40;98724.91;5102510;28;20044;-60
2022/02/14 05:38:16;;;;;;;6.65;2.13;;;;;;;9.71;55.16;98734.97;5122077;27;20055;-59
2022/02/14 05:40:44;;;;;;;4.15;2.00;;;;;;;9.78;55.13;98726.84;5110670;28;20529;-59
2022/02/14 05:43:11;;;;;;;4.38;2.20;;;;;;;9.81;55.43;98731.72;5104736;28;20044;-60
2022/02/14 05:45:39;;;;;;;5.00;2.45;;;;;;;9.91;55.28;98741.50;5114056;28;20526;-59
2022/02/14 05:48:06;;;;;;;5.03;2.40;;;;;;;9.82;55.04;98735.28;5113672;28;20062;-58
2022/02/14 05:50:35;;;;;;;5.45;2.17;;;;;;;9.95;55.10;98784.13;5114705;28;20518;-59
2022/02/14 05:53:03;;;;;;;4.32;2.08;;;;;;;9.88;55.35;98728.31;5123162;27;20059;-60
2022/02/14 05:55:30;;;;;;;4.60;1.83;;;;;;;9.94;55.26;98743.59;5114209;28;20051;-59
2022/02/14 05:57:57;;;;;;;5.28;2.08;;;;;;;9.96;55.33;98749.63;5114110;28;20148;-60
2022/02/14 06:00:25;;;;;;;5.32;1.77;;;;;;;10.01;55.16;98727.09;5111780;28;20047;-59
2022/02/14 06:02:52;;;;;;;3.20;2.00;;;;;;;10.09;55.18;98736.47;5107010;28;20050;-59
2022/02/14 06:05:20;;;;;;;4.47;2.20;;;;;;;10.09;55.29;98744.81;5110257;28;20052;-59
2022/02/14 06:07:49;;;;;;;4.05;1.90;;;;;;;10.15;55.01;98733.06;5115190;27;20063;-59
2022/02/14 06:10:16;;;;;;;4.15;2.00;;;;;;;10.19;55.13;98732.38;5120319;27;20047;-59
2022/02/14 06:12:43;;;;;;;5.07;2.10;;;;;;;10.14;55.30;98731.47;5117181;27;20043;-60
2022/02/14 06:15:11;;;;;;;5.90;2.20;;;;;;;10.11;55.34;98734.94;5114253;28;20511;-60
2022/02/14 06:17:38;;;;;;;4.65;2.10;;;;;;;10.30;55.34;98722.38;5113770;28;20176;-59
2022/02/14 06:20:07;;;;;;;3.47;2.00;;;;;;;10.10;55.67;98725.00;5113880;28;20059;-59
2022/02/14 06:22:35;;;;;;;2.50;1.80;;;;;;;10.27;55.15;98725.84;5116740;27;20043;-59
2022/02/14 06:25:04;;;;;;;4.65;2.13;;;;;;;10.27;55.55;98723.88;5134051;27;20051;-60
2022/02/14 06:27:31;;;;;;;4.22;2.03;;;;;;;10.32;55.21;98726.41;5134258;27;20051;-60
2022/02/14 06:29:59;;;;;;;4.07;2.00;;;;;;;10.34;55.09;98726.06;5116533;27;20055;-60
2022/02/14 06:32:26;;;;;;;2.78;1.80;;;;;;;10.47;55.04;98755.44;5113834;27;20043;-59
2022/02/14 06:34:54;;;;;;;3.55;2.25;;;;;;;10.45;55.13;98734.72;5113519;28;20043;-59
2022/02/14 06:37:21;;;;;;;4.20;2.00;;;;;;;10.50;54.73;98756.72;5107499;28;20100;-59
2022/02/14 06:39:48;;;;;;;4.70;2.05;;;;;;;10.39;55.05;98753.63;5125583;27;20399;-59
2022/02/14 06:42:17;;;;;;;4.07;2.25;;;;;;;10.41;55.13;98756.88;5113116;28;20133;-58
2022/02/14 06:44:44;;;;;;;3.27;2.03;;;;;;;10.49;55.28;98753.13;5113750;28;20388;-59
2022/02/14 06:47:12;;;;;;;4.30;2.50;;;;;;;10.42;55.18;98755.72;5112993;28;20055;-60
2022/02/14 06:49:39;;;;;;;4.07;2.15;;;;;;;10.35;55.73;98769.41;5108097;28;20070;-60
2022/02/14 06:52:07;;;;;;;4.60;1.98;;;;;;;10.34;55.69;98770.59;5106685;27;20397;-59
2022/02/14 06:54:34;;;;;;;3.58;1.88;;;;;;;10.40;55.56;98776.72;5113224;27;20052;-58
2022/02/14 06:57:02;;;;;;;3.47;1.85;;;;;;;10.40;55.56;98777.53;5108968;28;20082;-59
2022/02/14 06:59:31;;;;;;;3.42;1.83;;;;;;;10.23;56.11;98775.03;5112236;28;20074;-59
2022/02/14 07:02:00;;;;;;;3.10;1.95;;;;;;;10.30;55.97;98762.13;5122658;27;20055;-60
2022/02/14 07:04:30;;;;;;;3.63;2.00;;;;;;;10.38;56.05;98754.81;5132018;27;20051;-59
2022/02/14 07:06:57;;;;;;;5.78;2.20;;;;;;;10.40;55.98;98763.63;5112810;27;20056;-59
2022/02/14 07:09:25;;;;;;;2.92;1.83;;;;;;;10.46;55.69;98748.28;5122799;27;20055;-60
2022/02/14 07:11:52;;;;;;;4.13;1.95;;;;;;;10.34;56.00;98735.22;5113720;27;20044;-59
2022/02/14 07:14:20;;;;;;;3.75;2.03;;;;;;;10.33;56.02;98761.44;5111568;28;20660;-59
2022/02/14 07:16:50;;;;;;;4.60;2.20;;;;;;;10.34;56.19;98762.25;5109690;27;20519;-58
2022/02/14 07:19:17;;;;;;;4.05;1.85;;;;;;;10.36;56.30;98735.69;5132141;27;20058;-59
2022/02/14 07:21:44;;;;;;;4.57;2.05;;;;;;;10.41;56.38;98739.38;5114857;27;20051;-59
2022/02/14 07:24:12;;;;;;;3.63;1.90;;;;;;;10.27;56.84;98745.34;5111289;28;20055;-59
2022/02/14 07:26:39;;;;;;;3.33;1.70;;;;;;;10.56;56.46;98744.97;5109862;28;20050;-59
2022/02/14 07:29:07;;;;;;;4.00;1.85;;;;;;;10.93;55.20;98739.16;5108672;27;20380;-59
2022/02/14 07:31:35;;;;;;;3.20;1.83;;;;;;;11.55;53.75;98736.66;5111232;27;20407;-61
2022/02/14 07:34:03;;;;;;;3.92;1.90;;;;;;;11.97;52.23;98738.00;5114050;27;20066;-62
2022/02/14 07:36:33;;;;;;;3.55;1.67;;;;;;;12.10;51.87;98736.66;5105778;28;20048;-61
2022/02/14 07:39:00;;;;;;;4.72;2.20;;;;;;;12.74;50.71;98750.25;5113235;27;20057;-62
2022/02/14 07:41:28;;;;;;;3.72;1.90;;;;;;;12.93;50.06;98727.03;5111723;27;20055;-62
2022/02/14 07:43:55;;;;;;;4.40;1.92;;;;;;;12.43;50.98;98726.97;5116481;27;20464;-62
2022/02/14 07:46:22;;;;;;;2.80;1.85;;;;;;;12.05;52.35;98724.97;5117986;27;20069;-62
2022/02/14 07:48:50;;;;;;;3.60;1.90;;;;;;;11.57;53.98;98723.16;5110334;28;20055;-61
2022/02/14 07:51:19;;;;;;;4.35;1.85;;;;;;;11.64;53.99;98738.44;5109112;28;20048;-62
2022/02/14 07:53:46;;;;;;;3.60;1.88;;;;;;;11.73;53.94;98728.69;5112746;27;20043;-60
2022/02/14 07:56:14;;;;;;;3.85;2.08;;;;;;;11.76;54.16;98732.75;5125648;27;20051;-62
2022/02/14 07:58:42;;;;;;;3.80;2.22;;;;;;;12.70;51.38;98739.00;5122907;27;20047;-62
2022/02/14 08:01:10;;;;;;;4.85;2.20;;;;;;;12.18;52.79;98734.84;5109538;28;20384;-61
2022/02/14 08:03:39;;;;;;;3.33;1.70;;;;;;;11.98;53.34;98736.81;5112604;27;20044;-61
2022/02/14 08:06:06;;;;;;;4.38;1.70;;;;;;;11.81;54.17;98735.22;5106476;28;20047;-62
2022/02/14 08:08:35;;;;;;;3.58;1.73;;;;;;;11.84;54.53;98736.47;5110895;28;20050;-62
2022/02/14 08:11:03;;;;;;;3.38;2.17;;;;;;;11.73;54.84;98725.88;5109768;28;20071;-62
2022/02/14 08:13:32;;;;;;;2.25;1.75;;;;;;;11.74;54.81;98726.72;5111486;28;20491;-61
2022/02/14 08:15:59;;;;;;;3.55;1.73;;;;;;;11.51;55.18;98738.56;5110237;28;20055;-61
2022/02/14 08:18:26;;;;;;;2.95;1.90;;;;;;;11.71;55.06;98742.19;5110987;28;20055;-62
2022/02/14 08:20:53;;;;;;;4.30;2.03;;;;;;;11.74;55.01;98738.66;5110026;28;20055;-61
2022/02/14 08:23:21;;;;;;;3.72;1.70;;;;;;;11.72;55.23;98741.03;5108749;28;20384;-61
2022/02/14 08:25:49;;;;;;;2.58;1.70;;;;;;;11.51;55.92;98735.78;5104231;28;20052;-62
2022/02/14 08:28:17;;;;;;;3.05;1.70;;;;;;;11.70;55.75;98742.56;5110359;28;20054;-62
2022/02/14 08:30:45;;;;;;;2.75;1.60;;;;;;;11.75;55.53;98768.16;5109596;28;20062;-61
2022/02/14 08:33:15;;;;;;;3.58;1.80;;;;;;;11.61;55.97;98739.94;5110147;28;20059;-62
2022/02/14 08:35:42;;;;;;;4.07;1.80;;;;;;;11.70;56.46;98746.16;5112921;27;20060;-62
2022/02/14 08:38:12;;;;;;;4.72;1.90;;;;;;;11.74;56.16;98744.25;5110415;28;20071;-61
2022/02/14 08:40:39;;;;;;;3.25;1.90;;;;;;;11.69;56.48;98746.50;5102767;28;20067;-62
2022/02/14 08:43:08;;;;;;;3.97;1.77;;;;;;;11.76;56.25;98747.50;5099634;28;20051;-62
2022/02/14 08:45:35;;;;;;;4.18;1.60;;;;;;;11.60;56.76;98769.03;5109306;28;20102;-62
2022/02/14 08:48:03;;;;;;;2.95;1.60;;;;;;;11.75;56.75;98745.84;5110349;28;20047;-61
2022/02/14 08:50:31;;;;;;;4.13;2.10;;;;;;;11.47;57.54;98732.09;5113445;28;20043;-61
2022/02/14 08:53:00;;;;;;;4.13;1.95;;;;;;;11.39;57.93;98766.53;5110468;28;20475;-62
2022/02/14 08:55:28;;;;;;;3.38;1.83;;;;;;;11.45;57.83;98745.59;5110141;28;20062;-62
2022/02/14 08:57:58;;;;;;;2.63;1.60;;;;;;;11.60;57.96;98763.44;5109156;28;20051;-62
2022/02/14 09:00:27;;;;;;;3.83;2.15;;;;;;;11.71;57.54;98744.97;5109817;28;20429;-61
2022/02/14 09:02:56;;;;;;;6.13;2.17;;;;;;;11.61;57.64;98739.94;5109542;28;20043;-61
2022/02/14 09:05:24;;;;;;;;;;;;;;;11.61;58.02;98762.25;5110404;28;20047;-61
2022/02/14 09:07:51;;;;;;;4.38;2.13;;;;;;;11.61;58.39;98726.00;5130111;28;19919;-61
2022/02/14 09:10:18;;;;;;;3.42;2.13;;;;;;;11.84;57.63;98734.47;5096391;28;20164;-61
2022/02/14 09:12:47;;;;;;;4.25;1.92;;;;;;;11.91;57.44;98750.63;5108833;28;20063;-61
2022/02/14 09:15:15;;;;;;;4.47;1.80;;;;;;;11.77;57.89;98749.09;5113220;28;20054;-61
2022/02/14 09:17:44;;;;;;;3.65;2.00;;;;;;;12.10;56.73;98775.75;5113670;28;20055;-61
2022/02/14 09:20:12;;;;;;;4.38;1.67;;;;;;;12.56;56.31;98739.56;5113557;28;20456;-61
2022/02/14 09:22:39;;;;;;;2.67;1.73;;;;;;;12.56;55.59;98764.69;5111976;28;20044;-61
2022/02/14 09:25:08;;;;;;;5.68;2.20;;;;;;;12.61;55.69;98754.41;5112841;28;20063;-61
2022/02/14 09:27:35;;;;;;;3.83;1.80;;;;;;;12.83;55.18;98748.03;5114545;27;20047;-61
2022/02/14 09:30:03;;;;;;;2.88;1.58;;;;;;;13.18;54.17;98744.22;5113224;28;20122;-61
2022/02/14 09:32:30;;;;;;;3.15;1.90;;;;;;;13.69;52.36;98766.25;5113095;28;20054;-61
2022/02/14 09:34:59;;;;;;;3.70;1.70;;;;;;;14.24;51.63;98740.56;5113179;28;20055;-61
2022/02/14 09:37:26;;;;;;;2.65;1.77;;;;;;;13.96;51.92;98750.22;5113762;28;20542;-61
2022/02/14 09:39:54;;;;;;;3.03;1.70;;;;;;;13.73;52.21;98761.50;5112102;28;20058;-62
2022/02/14 09:42:21;;;;;;;4.05;1.90;;;;;;;13.68;52.79;98750.63;5105182;27;20048;-61
2022/02/14 09:44:48;;;;;;;4.13;1.70;;;;;;;13.72;52.78;98750.69;5113425;28;20044;-62
2022/02/14 09:47:19;;;;;;;5.53;1.77;;;;;;;13.09;54.63;98772.44;5113497;28;20423;-61
2022/02/14 09:49:48;;;;;;;4.22;1.95;;;;;;;13.07;54.17;98751.63;5112650;27;20047;-61
2022/02/14 09:52:17;;;;;;;4.22;1.83;;;;;;;13.02;54.52;98743.53;5112982;28;20055;-62
2022/02/14 09:54:44;;;;;;;3.85;1.77;;;;;;;13.15;54.67;98754.16;5113329;28;20055;-62
2022/02/14 09:57:12;;;;;;;5.85;2.10;;;;;;;12.97;54.39;98767.81;5123905;27;20066;-62
2022/02/14 09:59:42;;;;;;;4.25;2.15;;;;;;;12.85;55.26;98740.09;5119195;27;20058;-62
2022/02/14 10:02:19;;;;;;;2.60;1.65;;;;;;;12.79;55.62;98770.31;5112582;28;20059;-62
2022/02/14 10:05:07;;;;;;;2.78;1.65;;;;;;;12.73;55.47;98765.41;5111520;28;20137;-62
2022/02/14 10:07:45;;;;;;;3.92;1.80;;;;;;;12.45;56.61;98777.66;5110664;28;20047;-62
2022/02/14 10:10:18;;;;;;;5.15;1.73;;;;;;;12.65;56.05;98756.09;5113286;27;20058;-62
2022/02/14 10:12:47;;;;;;;4.32;1.90;;;;;;;12.57;56.26;98771.88;5111454;28;20055;-62
2022/02/14 10:15:17;;;;;;;3.45;1.88;;;;;;;12.50;56.37;98766.19;5111547;28;20062;-62
2022/02/14 10:17:47;;;;;;;4.28;2.00;;;;;;;12.48;56.72;98767.72;5112909;28;20411;-62
2022/02/14 10:20:19;;;;;;;2.83;1.65;;;;;;;12.71;56.31;98768.56;5111991;28;20368;-62
2022/02/14 10:22:56;;;;;;;4.93;1.52;;;;;;;12.53;56.68;98773.81;5112967;27;20062;-62
2022/02/14 10:25:37;;;;;;;3.70;1.77;;;;;;;12.85;55.77;98790.38;5117907;27;20388;-62
2022/02/14 10:28:18;;;;;;;3.42;1.80;;;;;;;12.67;56.00;98792.03;5110133;28;20063;-62
2022/02/14 10:31:01;;;;;;;5.47;1.52;;;;;;;12.59;56.28;98793.88;5099815;28;20354;-62
2022/02/14 10:33:49;;;;;;;2.85;1.60;;;;;;;12.62;56.25;98787.56;5111843;27;20054;-61
2022/02/14 10:36:31;;;;;;;3.17;1.67;;;;;;;12.58;56.50;98792.28;5109146;28;20066;-61
2022/02/14 10:39:10;;;;;;;3.15;1.50;;;;;;;12.72;56.13;98792.53;5108526;28;20193;-61
2022/02/14 10:41:38;;;;;;;3.35;1.60;;;;;;;12.58;56.61;98800.66;5112537;27;20051;-62
2022/02/14 10:44:08;;;;;;;4.35;1.80;;;;;;;12.72;56.54;98794.50;5121789;27;20051;-62
2022/02/14 10:46:35;;;;;;;2.85;1.48;;;;;;;12.85;55.92;98792.34;5113282;27;20062;-64
2022/02/14 10:49:04;;;;;;;5.07;1.67;;;;;;;12.89;56.07;98793.22;5112726;28;20468;-62
2022/02/14 10:51:35;;;;;;;3.30;1.60;;;;;;;12.73;57.16;98804.53;5111616;28;20125;-62
2022/02/14 10:54:05;;;;;;;3.28;1.67;;;;;;;12.78;57.63;98812.59;5112374;27;20048;-63
2022/02/14 10:56:41;;;;;;;3.05;1.58;;;;;;;12.78;58.24;98820.97;5111194;28;20412;-62
2022/02/14 10:59:17;;;;;;;5.18;1.75;;;;;;;12.26;61.56;98853.03;5112024;28;20074;-62
2022/02/14 11:01:45;;;;;;;3.50;1.70;;;;;;;12.33;63.94;98814.91;5110977;28;20392;-62
2022/02/14 11:04:13;;;;;;;3.45;2.00;;;;;;;12.11;64.21;98816.41;5110794;28;20059;-62
2022/02/14 11:06:41;;;;;;;4.90;1.50;;;;;;;11.88;64.55;98833.03;5111184;28;20055;-62
2022/02/14 11:09:11;;;;;;;4.35;2.20;;;;;;;11.98;66.87;98828.88;5114973;27;20047;-62
2022/02/14 11:11:40;;;;;;;4.63;2.67;;;;;;;11.50;71.17;98828.13;5115828;27;20059;-62
2022/02/14 11:14:08;;;;;;;4.32;2.20;;;;;;;11.19;74.27;98840.91;5111683;28;20472;-62
2022/02/14 11:16:42;;;;;;;4.63;1.80;;;;;;;11.25;74.10;98850.59;5110365;28;20052;-62
2022/02/14 11:19:11;;;;;;;3.00;1.40;;;;;;;11.00;73.01;98855.53;5109018;28;20067;-62
2022/02/14 11:21:39;;;;;;;5.07;1.50;;;;;;;11.08;72.78;98850.97;5109843;28;20472;-62
2022/02/14 11:24:21;;;;;;;2.72;1.50;;;;;;;11.02;71.75;98846.81;5109550;28;20044;-62
2022/02/14 11:26:57;;;;;;;2.95;1.48;;;;;;;10.92;72.11;98854.53;5111591;27;20058;-61
2022/02/14 11:29:42;;;;;;;4.30;1.70;;;;;;;11.01;70.15;98864.72;5109697;28;20059;-60
2022/02/14 11:32:26;;;;;;;3.50;1.60;;;;;;;10.94;70.86;98863.34;5109984;28;20060;-61
2022/02/14 11:34:58;;;;;;;3.85;1.58;;;;;;;11.00;69.02;98865.88;5109966;28;20052;-61
2022/02/14 11:37:48;;;;;;;3.03;1.50;;;;;;;10.99;68.77;98875.41;5112632;27;20047;-61
2022/02/14 11:40:41;;;;;;;3.25;1.30;;;;;;;11.06;67.24;98873.59;5109333;27;20051;-61
2022/02/14 11:43:11;;;;;;;1.90;1.30;;;;;;;11.23;67.65;98880.81;5115982;27;20051;-60